Terminal Aerodrome Forecast
Issued by NWS

Home | Current Version | Previous Version | Text Only | Print | Product List | Glossary On
Versions: 1 2 3 4 5 6 7 8 9 10 11 12 13 14 15 16 17 18 19 20 21 22 23 24 25 26
000
FTUS46 KSEW 210521
TAFSEA
TAF
KSEA 210521Z 2106/2212 02006KT P6SM SCT200
     FM211300 03004KT P6SM SCT004
     FM211600 33008KT P6SM SKC
     FM220400 01008KT P6SM SKC=

USA.gov is the U.S. government's official web portal to all federal, state and local government web resources and services.